Albany, TX

10:58 AM CDT on August 29, 2016 (GMT -0500)
KTXALBAN3 | | Change Station

Elev 1293 ft 32.79 °N, 99.17 °W | Updated 17 seconds ago

Clear
Clear
81.3 °F
Feels Like 86 °F
N
3.7
Wind Variable Wind from SSE
Gusts 8.0 mph

Today
High -- | Low -- °F
--% Chance of Precip.
Yesterday
High -- | Low -- °F
Precip. -- in
Pressure 30.12 in
Visibility 7.0 miles
Clouds Clear
Heat Index 86 °F
Dew Point 72 °F
Humidity 74%
Rainfall 0.00 in
Snow Depth Not available.
7:10 AM 8:04 PM
Waning Crescent, 8% visible
METAR KBKD 291530Z AUTO 12010KT 7SM CLR 29/19 A3012 RMK AO2 T02900190
Pressure 30.12 in
Visibility 7.0 miles
Clouds Clear
Heat Index 86 °F
Dew Point 72 °F
Humidity 74%
Rainfall 0.00 in
Snow Depth Not available.
7:10 AM 8:04 PM
Waning Crescent, 8% visible
METAR KBKD 291530Z AUTO 12010KT 7SM CLR 29/19 A3012 RMK AO2 T02900190

10-Day Weather Forecast

Almanac

Astronomy

Aug. 29, 2016 Rise Set
Actual Time
Civil Twilight
Nautical Twilight
Astronomical Twilight
Moon
Length of Visible Light
Length of Day
Tomorrow will be .
, % of the Moon is Illuminated

Today's Extremes

State Highs State Lows

Community

WunderPhotos

Upload Photos

1,935,859 photos uploaded!

WunderBlog® & News

Nearby

Air Quality

  Air Quality AQ Index Pollutant
Not available.

Snow Depth

Station Depth Elevation

Earthquake Activity

City Distance Mag. Time & Date
Minimum magnitude displayed is 2.5.

Coastal Water Temperatures

Place Temperature

Stations

Nearby Weather Stations

Station Location Temp. Windchill Dew Point Humidity Wind Precip. Elev Updated Type
                   

Watches & Warnings

There are currently no watches in effect.